createdAt,value
2022-12-06T00:03:08.267Z,3.98
2022-12-06T00:06:01.582Z,3.97
2022-12-06T00:08:50.281Z,4.03
2022-12-06T00:11:40.132Z,4.03
2022-12-06T00:17:19.431Z,4.15
2022-12-06T00:22:55.139Z,4.15
2022-12-06T00:28:28.018Z,4.24
2022-12-06T00:31:19.843Z,4.21
2022-12-06T00:36:49.881Z,4.19
2022-12-06T00:42:23.016Z,4.19
2022-12-06T00:48:01.096Z,4.26
2022-12-06T00:53:32.465Z,4.28
2022-12-06T00:59:09.817Z,4.30
2022-12-06T01:01:58.051Z,4.23
2022-12-06T01:04:47.494Z,4.23
2022-12-06T01:07:35.862Z,4.19
2022-12-06T01:13:11.814Z,4.16
2022-12-06T01:18:47.374Z,3.99
2022-12-06T01:24:17.823Z,4.10
2022-12-06T01:29:55.002Z,4.11
2022-12-06T01:35:22.686Z,4.11
2022-12-06T01:40:53.251Z,4.22
2022-12-06T01:46:30.578Z,4.26
2022-12-06T01:52:09.760Z,4.24
2022-12-06T01:54:59.146Z,4.17
2022-12-06T02:00:32.334Z,4.19
2022-12-06T02:06:07.192Z,4.07
2022-12-06T02:11:39.262Z,4.12
2022-12-06T02:17:31.281Z,4.03
2022-12-06T02:23:58.637Z,4.09
2022-12-06T02:30:09.420Z,4.12
2022-12-06T02:35:49.044Z,4.14
2022-12-06T02:41:29.041Z,3.89
2022-12-06T02:46:59.245Z,3.95
2022-12-06T02:49:50.088Z,3.84
2022-12-06T02:55:24.471Z,3.74
2022-12-06T03:01:00.318Z,3.81
2022-12-06T03:03:58.695Z,3.71
2022-12-06T03:10:01.365Z,3.74
2022-12-06T03:12:54.429Z,3.61
2022-12-06T03:18:38.744Z,3.50
2022-12-06T03:21:31.242Z,3.38
2022-12-06T03:27:15.898Z,3.50
2022-12-06T03:32:51.694Z,3.31
2022-12-06T03:38:41.848Z,3.22
2022-12-06T03:41:32.363Z,3.29
2022-12-06T03:47:05.018Z,3.53
2022-12-06T03:49:55.374Z,3.47
2022-12-06T03:52:44.245Z,3.47
2022-12-06T03:55:33.357Z,3.38
2022-12-06T03:58:21.921Z,3.33
2022-12-06T04:01:10.053Z,3.37
2022-12-06T04:06:46.046Z,3.38
2022-12-06T04:09:52.043Z,3.37
2022-12-06T04:12:58.215Z,3.20
2022-12-06T04:18:28.524Z,3.44
2022-12-06T04:24:00.400Z,3.25
2022-12-06T04:26:48.901Z,3.20
2022-12-06T04:29:56.425Z,3.30
2022-12-06T04:35:48.936Z,3.66
2022-12-06T04:41:42.199Z,3.71
2022-12-06T04:44:30.380Z,3.59
2022-12-06T04:47:19.425Z,3.62
2022-12-06T04:50:10.833Z,3.50
2022-12-06T04:55:47.129Z,3.44
2022-12-06T05:01:19.511Z,3.55
2022-12-06T05:06:55.623Z,3.33
2022-12-06T05:09:45.004Z,3.16
2022-12-06T05:12:34.393Z,3.16
2022-12-06T05:20:46.153Z,3.23
2022-12-06T05:50:17.367Z,3.17
2022-12-06T05:53:05.972Z,3.05
2022-12-06T05:55:53.853Z,3.00
2022-12-06T05:58:43.242Z,3.05
2022-12-06T06:01:31.819Z,3.06
2022-12-06T06:04:20.239Z,3.18
2022-12-06T06:09:56.393Z,3.18
2022-12-06T06:12:45.267Z,3.19
2022-12-06T06:15:33.999Z,3.29
2022-12-06T06:21:07.409Z,3.33
2022-12-06T06:23:57.868Z,3.34
2022-12-06T06:29:34.217Z,3.29
2022-12-06T06:32:22.736Z,3.21
2022-12-06T06:35:22.787Z,3.30
2022-12-06T06:43:59.609Z,3.59
2022-12-06T06:49:27.969Z,3.62
2022-12-06T06:54:57.659Z,3.44
2022-12-06T06:57:48.342Z,3.50
2022-12-06T07:03:21.916Z,3.55
2022-12-06T07:09:01.091Z,3.52
2022-12-06T07:14:29.533Z,3.54
2022-12-06T07:20:02.008Z,3.71
2022-12-06T07:25:32.422Z,3.64
2022-12-06T07:31:11.188Z,3.81
2022-12-06T07:36:46.086Z,3.98
2022-12-06T07:45:07.906Z,3.94
2022-12-06T07:50:43.053Z,4.15
2022-12-06T07:56:20.038Z,4.13
2022-12-06T08:01:50.657Z,4.39
2022-12-06T08:07:34.798Z,4.27
2022-12-06T08:13:23.935Z,4.59
2022-12-06T08:21:48.495Z,5.09
2022-12-06T08:30:18.641Z,5.00
2022-12-06T08:41:42.045Z,4.33
2022-12-06T08:50:24.538Z,4.40
2022-12-06T08:58:50.842Z,4.58
2022-12-06T09:04:28.157Z,4.59
2022-12-06T09:07:18.700Z,4.52
2022-12-06T09:13:01.510Z,4.61
2022-12-06T09:18:38.830Z,4.30
2022-12-06T09:21:30.312Z,4.36
2022-12-06T09:27:01.049Z,4.57
2022-12-06T09:29:49.756Z,4.81
2022-12-06T09:32:37.915Z,4.88
2022-12-06T09:38:13.130Z,5.05
2022-12-06T09:43:51.770Z,5.57
2022-12-06T09:49:32.753Z,5.53
2022-12-06T09:55:26.244Z,5.86
2022-12-06T10:00:59.457Z,5.73
2022-12-06T10:09:46.617Z,5.31
2022-12-06T10:15:56.196Z,5.83
2022-12-06T10:21:45.867Z,6.00
2022-12-06T10:27:44.889Z,5.71
2022-12-06T10:33:19.624Z,5.82
2022-12-06T10:36:10.719Z,5.85
2022-12-06T10:39:00.738Z,6.01
2022-12-06T10:44:38.996Z,6.56
2022-12-06T10:50:28.608Z,6.64
2022-12-06T10:56:01.931Z,6.08
2022-12-06T11:01:43.337Z,5.74
2022-12-06T11:07:21.113Z,5.72
2022-12-06T11:13:13.143Z,5.45
2022-12-06T11:16:04.664Z,5.52
2022-12-06T11:18:55.314Z,5.62
2022-12-06T11:21:46.758Z,5.30
2022-12-06T11:32:43.234Z,5.41
2022-12-06T11:40:58.843Z,5.35
2022-12-06T11:46:49.455Z,5.43
2022-12-06T11:52:29.337Z,5.22
2022-12-06T11:55:19.504Z,5.31
2022-12-06T12:01:04.339Z,5.50
2022-12-06T12:03:53.004Z,5.52
2022-12-06T12:09:30.493Z,5.09
2022-12-06T12:12:21.590Z,4.78
2022-12-06T12:18:04.510Z,4.78
2022-12-06T12:23:44.181Z,5.12
2022-12-06T12:29:23.916Z,4.95
2022-12-06T12:32:13.492Z,4.71
2022-12-06T12:40:46.642Z,5.22
2022-12-06T12:43:35.996Z,5.06
2022-12-06T12:46:25.159Z,5.21
2022-12-06T12:55:06.053Z,5.01
2022-12-06T13:00:56.524Z,4.84
2022-12-06T13:09:26.669Z,5.44
2022-12-06T13:12:19.273Z,5.23
2022-12-06T13:15:17.099Z,5.33
2022-12-06T13:21:01.791Z,5.17
2022-12-06T13:23:52.858Z,5.22
2022-12-06T13:26:43.136Z,5.41
2022-12-06T13:29:34.299Z,5.15
2022-12-06T13:32:27.905Z,4.99
2022-12-06T13:35:27.658Z,5.13
2022-12-06T13:41:14.965Z,6.36
2022-12-06T13:44:03.436Z,7.97
2022-12-06T13:46:52.997Z,8.68
2022-12-06T13:49:48.929Z,8.50
2022-12-06T13:56:00.203Z,6.37
2022-12-06T14:01:46.102Z,5.49
2022-12-06T14:04:38.043Z,5.14
2022-12-06T14:10:24.368Z,5.14
2022-12-06T14:13:18.389Z,5.12
2022-12-06T14:16:07.338Z,4.95
2022-12-06T14:21:39.418Z,4.78
2022-12-06T14:24:29.507Z,4.79
2022-12-06T14:30:05.783Z,4.66
2022-12-06T14:32:55.509Z,4.48
2022-12-06T14:38:30.276Z,4.53
2022-12-06T14:41:37.880Z,4.27
2022-12-06T14:47:21.647Z,4.35
2022-12-06T14:50:26.576Z,4.15
2022-12-06T14:56:00.157Z,3.85
2022-12-06T15:01:34.278Z,3.87
2022-12-06T15:07:33.841Z,3.60
2022-12-06T15:13:20.332Z,3.27
2022-12-06T15:19:00.576Z,3.24
2022-12-06T15:21:51.743Z,3.14
2022-12-06T15:27:28.983Z,3.23
2022-12-06T15:30:18.110Z,3.15
2022-12-06T15:35:52.467Z,3.23
2022-12-06T15:44:23.588Z,2.88
2022-12-06T15:49:58.704Z,2.85
2022-12-06T15:52:47.488Z,2.83
2022-12-06T15:58:16.836Z,2.98
2022-12-06T16:01:06.388Z,2.80
2022-12-06T16:03:56.379Z,2.78
2022-12-06T16:06:44.732Z,2.67
2022-12-06T16:12:19.950Z,2.58
2022-12-06T16:17:56.715Z,2.63
2022-12-06T16:26:39.279Z,2.36
2022-12-06T16:32:10.821Z,2.47
2022-12-06T16:37:44.845Z,2.30
2022-12-06T16:43:22.322Z,2.16
2022-12-06T16:46:23.929Z,2.08
2022-12-06T16:52:02.330Z,2.10
2022-12-06T16:57:40.505Z,2.33
2022-12-06T17:03:15.580Z,2.12
2022-12-06T17:08:50.705Z,2.27
2022-12-06T17:14:28.310Z,2.19
2022-12-06T17:17:24.823Z,2.15
2022-12-06T17:20:15.514Z,2.23
2022-12-06T17:23:03.723Z,2.35
2022-12-06T17:26:01.150Z,2.60
2022-12-06T17:31:35.139Z,2.52
2022-12-06T17:37:06.493Z,2.71
2022-12-06T17:53:57.823Z,3.03
2022-12-06T17:59:34.856Z,3.19
2022-12-06T18:02:25.772Z,3.24
2022-12-06T18:08:02.423Z,2.98
2022-12-06T18:13:47.472Z,3.30
2022-12-06T18:19:16.614Z,3.18
2022-12-06T18:22:06.853Z,3.20
2022-12-06T18:27:45.018Z,3.40
2022-12-06T18:33:27.868Z,3.42
2022-12-06T18:36:14.275Z,3.09
2022-12-06T18:42:02.591Z,3.25
2022-12-06T18:44:58.035Z,3.25
2022-12-06T18:47:43.546Z,3.28
2022-12-06T18:53:13.131Z,3.16
2022-12-06T18:56:01.832Z,3.27
2022-12-06T19:01:38.789Z,3.40
2022-12-06T19:09:58.243Z,3.51
2022-12-06T19:15:28.575Z,3.71
2022-12-06T19:23:47.325Z,3.55
2022-12-06T19:29:15.910Z,3.63
2022-12-06T19:34:50.912Z,3.61
2022-12-06T19:37:39.549Z,3.61
2022-12-06T19:43:26.172Z,3.64
2022-12-06T19:48:56.283Z,3.53
2022-12-06T19:51:46.398Z,3.62
2022-12-06T19:57:16.915Z,3.70
2022-12-06T20:02:56.308Z,3.81
2022-12-06T20:05:49.408Z,3.71
2022-12-06T20:11:50.599Z,3.73
2022-12-06T20:24:03.638Z,3.51
2022-12-06T20:29:40.444Z,3.63
2022-12-06T20:35:13.842Z,3.70
2022-12-06T20:40:46.859Z,3.73
2022-12-06T20:43:35.810Z,3.71
2022-12-06T20:49:05.756Z,3.73
2022-12-06T20:51:54.065Z,3.64
2022-12-06T20:57:34.501Z,3.64
2022-12-06T21:00:24.138Z,3.58
2022-12-06T21:06:01.827Z,3.88
2022-12-06T21:11:49.878Z,3.79
2022-12-06T21:17:24.349Z,3.92
2022-12-06T21:23:04.754Z,3.78
2022-12-06T21:25:53.722Z,3.67
2022-12-06T21:31:28.859Z,3.54
2022-12-06T21:37:03.629Z,3.57
2022-12-06T21:42:49.831Z,3.73
2022-12-06T21:48:19.233Z,3.64
2022-12-06T21:53:59.607Z,3.56
2022-12-06T21:59:35.639Z,3.55
2022-12-06T22:02:25.793Z,3.64
2022-12-06T22:05:15.443Z,3.75
2022-12-06T22:08:07.175Z,3.75
2022-12-06T22:10:55.825Z,3.60
2022-12-06T22:13:44.295Z,3.52
2022-12-06T22:16:33.598Z,3.64
2022-12-06T22:22:11.386Z,3.78
2022-12-06T22:25:01.788Z,3.70
2022-12-06T22:27:54.277Z,3.77
2022-12-06T22:33:31.658Z,3.67
2022-12-06T22:36:20.804Z,3.58
2022-12-06T22:41:58.846Z,3.73
2022-12-06T22:47:35.588Z,3.75
2022-12-06T22:50:24.315Z,3.79
2022-12-06T22:55:54.697Z,3.79
2022-12-06T22:58:42.839Z,3.63
2022-12-06T23:01:32.824Z,3.42
2022-12-06T23:07:10.507Z,3.31
2022-12-06T23:09:59.653Z,3.05
2022-12-06T23:12:48.862Z,3.07
2022-12-06T23:15:36.995Z,2.92
2022-12-06T23:18:26.769Z,2.91
2022-12-06T23:21:17.096Z,3.04
2022-12-06T23:26:57.545Z,3.10
2022-12-06T23:32:26.609Z,3.37
2022-12-06T23:35:17.525Z,3.35
2022-12-06T23:40:53.466Z,3.51
2022-12-06T23:46:31.840Z,3.59
2022-12-06T23:52:02.235Z,3.64
2022-12-06T23:57:33.662Z,3.75
